Time;durP1;ratioP1;P1;durP2;ratioP2;P2;SDS_P1;SDS_P2;PMS_P1;PMS_P2;Temp;Humidity;BMP_temperature;BMP_pressure;BME280_temperature;BME280_humidity;BME280_pressure;Samples;Min_cycle;Max_cycle;Signal;HPM_P1;HPM_P2
2021/11/14 00:00:40;;;;;;;24.15;17.00;;;;;;;8.34;96.90;101035.22;5032412;28;20045;-73
2021/11/14 00:03:07;;;;;;;22.95;17.23;;;;;;;8.24;96.95;101029.94;5032853;28;20469;-73
2021/11/14 00:05:34;;;;;;;22.92;17.08;;;;;;;8.40;96.53;101024.28;5033039;28;20085;-73
2021/11/14 00:08:04;;;;;;;21.65;16.00;;;;;;;8.27;96.59;101040.09;5033064;28;20046;-73
2021/11/14 00:10:31;;;;;;;19.65;15.02;;;;;;;8.25;96.77;101027.19;5034126;28;20491;-73
2021/11/14 00:12:57;;;;;;;19.17;15.77;;;;;;;8.24;96.95;101028.16;5032878;28;20046;-73
2021/11/14 00:15:25;;;;;;;21.65;15.75;;;;;;;8.26;96.68;101026.25;5032557;28;20081;-73
2021/11/14 00:17:51;;;;;;;18.67;15.55;;;;;;;8.31;96.70;101031.91;5032226;28;20053;-73
2021/11/14 00:20:19;;;;;;;22.58;15.77;;;;;;;8.31;96.54;101028.47;5032107;28;20543;-72
2021/11/14 00:22:45;;;;;;;17.67;15.23;;;;;;;8.25;96.78;101026.38;5031917;28;20136;-73
2021/11/14 00:25:17;;;;;;;19.80;16.05;;;;;;;8.26;96.90;101028.03;5032386;28;20153;-73
2021/11/14 00:27:43;;;;;;;19.65;14.88;;;;;;;8.21;97.00;101031.03;5031908;28;20068;-73
2021/11/14 00:30:11;;;;;;;18.70;15.02;;;;;;;8.30;96.86;101039.84;5031865;28;20491;-73
2021/11/14 00:32:38;;;;;;;19.90;14.82;;;;;;;8.24;96.98;101035.16;5032008;28;20611;-73
2021/11/14 00:35:06;;;;;;;20.42;15.32;;;;;;;8.23;96.45;101034.31;5031945;28;20133;-73
2021/11/14 00:37:35;;;;;;;22.23;16.33;;;;;;;8.21;96.94;101040.63;5031690;28;20103;-73
2021/11/14 00:40:03;;;;;;;19.98;16.02;;;;;;;8.25;96.66;101042.84;5016929;28;20050;-73
2021/11/14 00:42:31;;;;;;;20.48;16.13;;;;;;;8.24;96.98;101046.41;5001083;28;20050;-72
2021/11/14 00:44:57;;;;;;;21.10;15.50;;;;;;;8.17;97.05;101036.63;5004208;28;20510;-73
2021/11/14 00:47:24;;;;;;;45.08;23.98;;;;;;;8.18;97.04;101041.72;5004462;28;20081;-72
2021/11/14 00:49:51;;;;;;;27.10;18.60;;;;;;;8.10;97.43;101044.13;5002851;28;20081;-73
2021/11/14 00:52:17;;;;;;;22.48;17.45;;;;;;;8.18;96.82;101041.72;5001187;28;20078;-73
2021/11/14 00:54:44;;;;;;;22.60;16.38;;;;;;;8.13;97.04;101049.09;5000959;28;20042;-72
2021/11/14 00:57:11;;;;;;;21.70;16.45;;;;;;;8.12;97.09;101041.41;5003332;28;20133;-72
2021/11/14 00:59:39;;;;;;;20.75;16.25;;;;;;;8.17;97.17;101055.69;5002711;28;20105;-72
2021/11/14 01:02:06;;;;;;;21.73;16.25;;;;;;;8.13;96.82;101051.69;5002543;28;20117;-72
2021/11/14 01:04:32;;;;;;;21.15;14.88;;;;;;;8.12;97.38;101052.66;5013211;28;20119;-72
2021/11/14 01:07:02;;;;;;;18.75;15.13;;;;;;;8.10;96.96;101045.91;5012984;28;20068;-72
2021/11/14 01:09:29;;;;;;;22.05;15.57;;;;;;;8.10;96.99;101056.34;5013085;28;20196;-71
2021/11/14 01:11:55;;;;;;;20.75;14.70;;;;;;;8.18;96.78;101053.91;5012738;28;20569;-71
2021/11/14 01:14:22;;;;;;;20.70;14.65;;;;;;;8.07;96.93;101059.22;5013494;28;20081;-74
2021/11/14 01:16:51;;;;;;;19.77;14.23;;;;;;;8.10;96.94;101067.59;5016521;28;20046;-74
2021/11/14 01:19:17;;;;;;;22.67;15.07;;;;;;;8.01;96.94;101065.78;5015283;28;20100;-74
2021/11/14 01:21:46;;;;;;;23.17;15.15;;;;;;;8.05;96.99;101068.94;5013870;28;20096;-74
2021/11/14 01:24:14;;;;;;;19.05;14.68;;;;;;;8.07;96.92;101070.47;5011965;28;20140;-73
2021/11/14 01:26:41;;;;;;;16.40;13.85;;;;;;;8.10;97.15;101065.00;5012102;28;20092;-73
2021/11/14 01:29:08;;;;;;;18.05;14.07;;;;;;;7.98;97.09;101068.66;5013752;28;20124;-73
2021/11/14 01:31:35;;;;;;;20.83;14.73;;;;;;;7.96;97.05;101068.78;5013068;28;20077;-72
2021/11/14 01:34:03;;;;;;;19.60;13.95;;;;;;;7.96;97.25;101070.56;5013182;28;20046;-72
2021/11/14 01:36:34;;;;;;;22.00;14.70;;;;;;;7.96;97.08;101081.81;5012958;28;20081;-72
2021/11/14 01:39:04;;;;;;;17.25;14.07;;;;;;;8.03;96.92;101079.53;5012858;28;20412;-73
2021/11/14 01:41:33;;;;;;;18.05;13.32;;;;;;;7.99;96.84;101084.16;5012432;28;20092;-73
2021/11/14 01:44:02;;;;;;;18.10;13.85;;;;;;;7.95;96.68;101090.59;5012513;28;20077;-73
2021/11/14 01:46:29;;;;;;;17.05;13.82;;;;;;;7.94;96.62;101083.72;5012232;28;20050;-74
2021/11/14 01:48:58;;;;;;;16.10;13.23;;;;;;;8.04;96.32;101088.13;5012326;28;20054;-73
2021/11/14 01:51:26;;;;;;;17.38;12.93;;;;;;;7.96;96.76;101097.44;5011897;28;20065;-73
2021/11/14 01:53:53;;;;;;;17.55;13.60;;;;;;;8.03;96.48;101086.50;5012501;28;20057;-73
2021/11/14 01:56:21;;;;;;;15.25;12.90;;;;;;;7.97;96.65;101098.28;5012605;28;20137;-73
2021/11/14 01:58:52;;;;;;;16.02;13.77;;;;;;;8.02;96.90;101108.31;5011803;28;20133;-73
2021/11/14 02:01:21;;;;;;;16.75;13.32;;;;;;;7.94;96.96;101107.16;5012346;28;20469;-72
2021/11/14 02:03:53;;;;;;;16.60;12.88;;;;;;;7.95;96.81;101097.56;5013429;28;20054;-72
2021/11/14 02:06:23;;;;;;;16.23;12.82;;;;;;;7.99;96.59;101083.34;5016437;28;20076;-72
2021/11/14 02:08:53;;;;;;;14.65;12.38;;;;;;;8.00;96.67;101100.63;5016226;28;20432;-73
2021/11/14 02:11:20;;;;;;;15.65;12.40;;;;;;;7.98;96.68;101094.72;5015700;28;20582;-72
2021/11/14 02:13:49;;;;;;;15.07;11.82;;;;;;;8.17;96.02;101110.44;5015793;28;20136;-72
2021/11/14 02:16:18;;;;;;;14.20;12.27;;;;;;;8.02;96.18;101096.13;5017346;28;20092;-72
2021/11/14 02:18:45;;;;;;;13.73;11.68;;;;;;;8.05;96.08;101111.47;5016854;28;20132;-72
2021/11/14 02:23:48;;;;;;;14.38;11.20;;;;;;;7.98;95.90;101110.34;5041729;22;20081;-81
2021/11/14 02:26:15;;;;;;;15.77;12.77;;;;;;;8.07;95.80;101111.34;5019938;28;20153;-82
2021/11/14 02:28:42;;;;;;;14.05;12.15;;;;;;;8.01;95.97;101115.31;5018963;28;20049;-79
2021/11/14 02:31:09;;;;;;;13.43;11.40;;;;;;;8.12;95.71;101115.22;5019924;28;20141;-81
2021/11/14 02:33:39;;;;;;;15.18;11.88;;;;;;;8.06;96.05;101120.09;5018833;28;20064;-80
2021/11/14 02:36:09;;;;;;;13.70;12.07;;;;;;;8.02;96.02;101116.97;5018971;28;20054;-81
2021/11/14 02:38:37;;;;;;;15.45;12.10;;;;;;;8.01;96.23;101117.09;5019439;28;20054;-83
2021/11/14 02:41:06;;;;;;;13.52;11.43;;;;;;;8.05;96.16;101116.69;5018292;28;20132;-82
2021/11/14 02:43:33;;;;;;;13.73;11.13;;;;;;;8.10;95.95;101118.91;5018861;28;20129;-82
2021/11/14 02:45:59;;;;;;;13.05;11.35;;;;;;;8.06;96.17;101126.16;5019675;28;20092;-82
2021/11/14 02:48:26;;;;;;;13.27;11.57;;;;;;;8.02;96.06;101121.34;5018279;28;20068;-83
2021/11/14 02:50:56;;;;;;;13.75;11.23;;;;;;;8.08;96.08;101129.44;5018891;28;20054;-81
2021/11/14 02:53:26;;;;;;;13.65;11.05;;;;;;;8.01;95.85;101117.91;5018147;28;20058;-80
2021/11/14 02:55:54;;;;;;;13.88;10.68;;;;;;;8.01;95.92;101125.72;5018909;28;20045;-81
2021/11/14 02:58:23;;;;;;;13.23;11.40;;;;;;;7.92;96.18;101129.09;5022319;28;20053;-82
2021/11/14 03:00:54;;;;;;;14.90;12.13;;;;;;;7.94;96.31;101129.78;5019004;28;20140;-83
2021/11/14 03:03:23;;;;;;;15.05;11.15;;;;;;;7.95;96.36;101134.88;5018600;28;20057;-82
2021/11/14 03:05:52;;;;;;;12.90;11.50;;;;;;;7.90;96.50;101134.44;5019116;28;20129;-82
2021/11/14 03:08:20;;;;;;;15.13;11.80;;;;;;;7.96;96.39;101141.75;5018839;28;20045;-82
2021/11/14 03:10:47;;;;;;;14.23;12.27;;;;;;;7.92;96.59;101144.72;5022126;28;20057;-81
2021/11/14 03:13:17;;;;;;;13.43;11.48;;;;;;;7.93;96.60;101144.59;5018466;28;20056;-81
2021/11/14 03:15:48;;;;;;;14.05;12.07;;;;;;;7.96;96.75;101143.53;5017457;28;20056;-83
2021/11/14 03:18:16;;;;;;;16.35;12.18;;;;;;;7.89;96.41;101147.59;5018052;28;20089;-82
2021/11/14 03:20:45;;;;;;;14.48;11.52;;;;;;;7.92;96.52;101139.50;5018086;28;20120;-82
2021/11/14 03:23:13;;;;;;;17.05;12.77;;;;;;;7.80;96.99;101136.13;5047180;28;20068;-81
2021/11/14 03:25:40;;;;;;;14.50;12.40;;;;;;;7.89;96.87;101144.97;5058355;28;20072;-80
2021/11/14 03:28:07;;;;;;;13.65;12.10;;;;;;;7.91;97.07;101163.91;5057432;28;20072;-81
2021/11/14 03:30:35;;;;;;;14.80;12.93;;;;;;;7.91;96.76;101163.91;5057924;28;20045;-82
2021/11/14 03:33:05;;;;;;;15.73;13.13;;;;;;;8.01;96.30;101170.03;5057680;28;20041;-81
2021/11/14 03:35:41;;;;;;;17.80;13.35;;;;;;;7.97;96.36;101168.63;5057631;28;20049;-80
2021/11/14 03:38:08;;;;;;;14.57;12.48;;;;;;;7.96;96.51;101177.41;5057357;28;20135;-80
2021/11/14 03:40:36;;;;;;;15.00;12.45;;;;;;;7.94;96.53;101169.72;5057180;28;20069;-80
2021/11/14 03:43:03;;;;;;;14.45;12.85;;;;;;;7.95;96.47;101176.56;5057347;28;20132;-80
2021/11/14 03:45:31;;;;;;;16.45;12.88;;;;;;;7.97;96.44;101172.06;5057572;28;20049;-80
2021/11/14 03:47:58;;;;;;;16.52;12.65;;;;;;;8.00;96.36;101184.03;5056609;28;20087;-80
2021/11/14 03:50:27;;;;;;;15.23;13.07;;;;;;;7.94;96.43;101179.31;5057307;28;20064;-80
2021/11/14 03:52:54;;;;;;;19.30;13.82;;;;;;;7.97;96.57;101184.28;5057608;28;20041;-80
2021/11/14 03:55:21;;;;;;;17.33;12.88;;;;;;;7.97;96.40;101184.28;5057059;28;20071;-80
2021/11/14 03:57:48;;;;;;;15.48;13.25;;;;;;;8.00;96.60;101197.06;5057950;28;20131;-80
2021/11/14 04:00:18;;;;;;;18.17;13.90;;;;;;;7.97;96.55;101199.91;5057394;28;20048;-79
2021/11/14 04:02:45;;;;;;;15.30;12.82;;;;;;;7.99;96.22;101192.78;5057130;28;20116;-81
2021/11/14 04:05:12;;;;;;;14.50;12.90;;;;;;;7.94;96.49;101194.94;5057588;28;20053;-79
2021/11/14 04:07:40;;;;;;;16.70;14.10;;;;;;;7.98;96.49;101201.56;5057625;28;20049;-80
2021/11/14 04:10:08;;;;;;;17.88;13.45;;;;;;;7.90;96.67;101198.75;5056966;28;20457;-81
2021/11/14 04:12:34;;;;;;;16.55;13.95;;;;;;;7.87;96.62;101199.00;5057167;28;20076;-82
2021/11/14 04:15:01;;;;;;;16.30;14.07;;;;;;;7.87;96.42;101204.22;5057614;28;20136;-80
2021/11/14 04:17:28;;;;;;;21.52;14.00;;;;;;;7.89;96.37;101212.72;5057862;28;20136;-81
2021/11/14 04:19:54;;;;;;;16.08;13.60;;;;;;;7.89;96.40;101215.34;5057382;28;20047;-80
2021/11/14 04:22:22;;;;;;;16.23;14.07;;;;;;;7.87;96.34;101210.25;5057578;28;20041;-80
2021/11/14 04:24:50;;;;;;;15.55;13.05;;;;;;;8.04;96.04;101221.88;5056970;28;20122;-80
2021/11/14 04:27:16;;;;;;;17.60;13.52;;;;;;;8.00;95.85;101217.91;5056560;28;20092;-80
2021/11/14 04:29:43;;;;;;;15.32;13.07;;;;;;;7.97;95.91;101231.19;5055812;28;20048;-80
2021/11/14 04:32:10;;;;;;;16.77;13.35;;;;;;;8.07;95.58;101231.22;5055938;28;20049;-81
2021/11/14 04:34:39;;;;;;;15.98;13.85;;;;;;;7.98;95.85;101225.00;5056246;28;20095;-82
2021/11/14 04:37:06;;;;;;;15.40;12.93;;;;;;;7.95;95.40;101226.09;5056536;28;20059;-80
2021/11/14 04:39:33;;;;;;;15.73;13.27;;;;;;;7.98;95.37;101235.44;5056212;28;20087;-79
2021/11/14 04:42:02;;;;;;;16.08;12.35;;;;;;;8.01;95.11;101234.38;5056473;28;20219;-79
2021/11/14 04:44:29;;;;;;;14.32;11.90;;;;;;;7.95;95.31;101241.72;5056370;28;20382;-80
2021/11/14 04:46:58;;;;;;;16.35;12.07;;;;;;;7.95;95.17;101230.47;5056244;28;20309;-80
2021/11/14 04:49:24;;;;;;;13.38;11.98;;;;;;;7.94;95.01;101234.03;5055618;28;20160;-80
2021/11/14 04:51:51;;;;;;;14.57;11.95;;;;;;;7.98;94.96;101238.88;5055915;28;20055;-80
2021/11/14 04:54:19;;;;;;;15.00;12.32;;;;;;;7.96;94.99;101234.72;5056223;28;20131;-81
2021/11/14 04:56:47;;;;;;;14.88;11.38;;;;;;;7.92;95.20;101236.75;5057289;28;20087;-80
2021/11/14 04:59:17;;;;;;;13.30;11.90;;;;;;;7.97;94.56;101236.38;5055760;28;20114;-83
2021/11/14 05:01:44;;;;;;;13.88;11.38;;;;;;;7.93;94.69;101243.63;5055851;28;20049;-79
2021/11/14 05:04:10;;;;;;;14.20;11.65;;;;;;;7.90;94.94;101248.25;5055760;28;20045;-78
2021/11/14 05:06:37;;;;;;;15.23;11.85;;;;;;;7.89;95.18;101249.22;5055323;28;20077;-78
2021/11/14 05:09:04;;;;;;;12.95;11.57;;;;;;;7.96;94.83;101245.16;5055735;28;20091;-78
2021/11/14 05:11:31;;;;;;;13.77;11.80;;;;;;;7.96;94.66;101255.59;5053197;28;20132;-79
2021/11/14 05:13:57;;;;;;;13.40;11.57;;;;;;;7.87;94.95;101262.34;5056630;28;20077;-78
2021/11/14 05:16:25;;;;;;;18.50;12.88;;;;;;;7.85;95.28;101264.25;5057720;28;20135;-78
2021/11/14 05:18:52;;;;;;;14.07;12.57;;;;;;;7.86;95.00;101260.69;5055733;28;20175;-78
2021/11/14 05:21:19;;;;;;;14.60;12.93;;;;;;;7.82;95.05;101268.88;5055445;28;20152;-79
2021/11/14 05:23:45;;;;;;;13.70;12.07;;;;;;;7.78;95.26;101272.69;5054825;28;20135;-78
2021/11/14 05:26:12;;;;;;;14.40;12.23;;;;;;;7.75;95.47;101278.13;5055609;28;20055;-80
2021/11/14 05:28:39;;;;;;;13.48;11.98;;;;;;;7.86;94.59;101278.13;5052302;28;20049;-79
2021/11/14 05:31:06;;;;;;;13.57;11.70;;;;;;;7.85;94.75;101273.84;5054254;28;20041;-79
2021/11/14 05:33:35;;;;;;;13.35;11.95;;;;;;;7.83;94.63;101281.78;5054554;28;20053;-82
2021/11/14 05:36:01;;;;;;;14.15;12.65;;;;;;;7.94;94.42;101288.75;5054231;28;20415;-80
2021/11/14 05:38:28;;;;;;;13.45;11.93;;;;;;;7.95;94.03;101280.00;5053949;28;20045;-79
2021/11/14 05:40:55;;;;;;;13.77;11.52;;;;;;;7.96;94.04;101286.84;5058907;28;20128;-80
2021/11/14 05:43:28;;;;;;;13.23;11.63;;;;;;;7.88;93.97;101282.25;5057884;28;20131;-79
2021/11/14 05:45:54;;;;;;;13.13;11.73;;;;;;;7.95;93.66;101283.41;5058944;28;20037;-81
2021/11/14 05:48:21;;;;;;;12.38;11.07;;;;;;;7.94;93.29;101294.78;5058245;28;20393;-80
2021/11/14 05:50:51;;;;;;;12.60;11.30;;;;;;;7.88;93.44;101289.25;5058179;28;20079;-81
2021/11/14 05:53:18;;;;;;;12.73;11.32;;;;;;;8.03;92.97;101293.22;5040166;28;20049;-79
2021/11/14 05:55:44;;;;;;;12.63;10.95;;;;;;;7.97;93.05;101298.94;5038395;28;20049;-79
2021/11/14 05:58:14;;;;;;;13.25;10.75;;;;;;;7.95;92.96;101296.44;5055004;28;20085;-81
2021/11/14 06:00:48;;;;;;;13.40;10.52;;;;;;;7.99;92.95;101302.25;5058429;28;20053;-79
2021/11/14 06:03:24;;;;;;;12.20;10.90;;;;;;;7.98;93.23;101303.19;5057886;28;20468;-79
2021/11/14 06:05:53;;;;;;;13.13;10.82;;;;;;;7.92;93.01;101308.91;5057605;28;20053;-78
2021/11/14 06:08:21;;;;;;;12.77;11.38;;;;;;;7.90;93.23;101329.03;5057554;28;20080;-78
2021/11/14 06:10:49;;;;;;;13.32;10.98;;;;;;;7.93;93.27;101326.19;5057841;28;20045;-78
2021/11/14 06:13:16;;;;;;;13.75;11.45;;;;;;;7.99;93.29;101333.53;5056824;28;20132;-78
2021/11/14 06:15:43;;;;;;;14.00;12.50;;;;;;;7.83;93.27;101333.06;5057123;28;20128;-78
2021/11/14 06:18:09;;;;;;;13.60;12.10;;;;;;;7.84;93.25;101339.94;5057701;28;20132;-78
2021/11/14 06:20:37;;;;;;;15.20;11.80;;;;;;;7.81;93.53;101345.38;5058724;28;20434;-78
2021/11/14 06:23:05;;;;;;;14.00;11.45;;;;;;;7.83;93.40;101348.69;5057065;28;20076;-78
2021/11/14 06:25:32;;;;;;;13.90;11.63;;;;;;;7.85;93.49;101363.28;5057982;28;20061;-78
2021/11/14 06:28:01;;;;;;;13.15;11.80;;;;;;;7.76;94.14;101357.94;5057619;28;20140;-78
2021/11/14 06:30:28;;;;;;;13.70;12.02;;;;;;;7.80;93.88;101364.56;5059488;28;20076;-78
2021/11/14 06:33:00;;;;;;;13.13;11.68;;;;;;;7.78;93.71;101367.31;5040098;22;20046;-67
2021/11/14 06:49:29;;;;;;;14.10;11.57;;;;;;;7.60;94.32;101385.19;4952337;29;20498;-67
2021/11/14 06:55:42;;;;;;;14.43;11.85;;;;;;;7.68;94.12;101404.59;4978345;28;20129;-67
2021/11/14 06:58:09;;;;;;;15.27;12.40;;;;;;;7.64;93.82;101404.84;4993556;28;20069;-67
2021/11/14 07:00:42;;;;;;;14.65;12.73;;;;;;;7.62;93.91;101409.34;4992366;28;20420;-66
2021/11/14 07:03:09;;;;;;;18.25;12.70;;;;;;;7.76;93.35;101416.09;4992466;28;20397;-67
2021/11/14 07:05:37;;;;;;;15.15;12.65;;;;;;;7.61;94.16;101418.09;4992812;28;20089;-67
2021/11/14 07:08:04;;;;;;;15.63;12.98;;;;;;;7.50;94.22;101425.91;4993241;28;20082;-66
2021/11/14 07:10:31;;;;;;;15.15;13.55;;;;;;;7.49;93.92;101439.88;4993175;28;20061;-67
2021/11/14 07:12:58;;;;;;;13.50;11.57;;;;;;;7.52;92.83;101439.66;4991283;28;20042;-66
2021/11/14 07:15:40;;;;;;;14.20;11.93;;;;;;;7.46;93.04;101439.28;4992557;28;20556;-66
2021/11/14 07:18:34;;;;;;;13.90;11.60;;;;;;;7.51;93.02;101448.41;4992194;28;20198;-67
2021/11/14 07:26:40;;;;;;;14.13;11.88;;;;;;;7.51;92.76;101455.41;5020037;28;20512;-67
2021/11/14 07:32:54;;;;;;;14.73;11.30;;;;;;;7.65;91.83;101462.97;4970037;28;20185;-67
2021/11/14 07:35:23;;;;;;;12.30;10.68;;;;;;;7.58;92.18;101477.41;4992166;28;20047;-68
2021/11/14 07:48:53;;;;;;;12.40;10.88;;;;;;;7.57;92.13;101463.53;5098927;23;20723;-86
2021/11/14 07:51:20;;;;;;;12.10;9.95;;;;;;;7.72;91.48;101476.38;5061056;28;20438;-84
2021/11/14 07:54:51;;;;;;;11.98;10.63;;;;;;;7.68;91.18;101480.16;5055249;28;20442;-86
2021/11/14 07:57:43;;;;;;;11.50;10.02;;;;;;;7.86;91.24;101489.16;5028481;28;20144;-85
2021/11/14 08:00:26;;;;;;;12.80;10.73;;;;;;;7.73;90.99;101478.84;5076489;28;20135;-86
2021/11/14 08:02:57;;;;;;;12.35;10.90;;;;;;;7.58;91.46;101477.41;5076600;28;20507;-86
2021/11/14 08:05:40;;;;;;;10.95;9.73;;;;;;;7.71;91.10;101485.13;5076925;28;20346;-87
2021/11/14 08:08:19;;;;;;;10.32;9.13;;;;;;;7.83;90.19;101485.03;5076441;28;20122;-87
2021/11/14 08:19:58;;;;;;;12.40;10.70;;;;;;;8.23;89.02;101503.63;5078373;28;20415;-86
2021/11/14 08:22:40;;;;;;;12.00;10.30;;;;;;;7.98;88.78;101480.41;5075933;28;20057;-86
2021/11/14 08:25:12;;;;;;;12.02;9.95;;;;;;;7.91;89.04;101487.03;5075925;28;20155;-87
2021/11/14 08:27:39;;;;;;;10.80;9.52;;;;;;;8.03;89.14;101509.56;5076406;28;20061;-86
2021/11/14 08:30:19;;;;;;;10.40;9.15;;;;;;;8.08;88.72;101517.84;5079018;28;20078;-90
2021/11/14 08:36:47;;;;;;;9.35;8.35;;;;;;;8.10;87.80;101508.13;5075359;28;20448;-86
2021/11/14 08:49:35;;;;;;;9.43;8.43;;;;;;;8.06;87.69;101517.13;5049822;28;20056;-89
2021/11/14 08:52:22;;;;;;;13.38;9.60;;;;;;;8.30;87.03;101535.25;5079313;28;20080;-86
2021/11/14 08:58:40;;;;;;;9.60;8.63;;;;;;;8.42;86.60;101546.56;5068517;28;20071;-86
2021/11/14 09:07:30;;;;;;;6.95;6.35;;;;;;;8.69;85.64;101554.81;4972840;22;20053;-67
2021/11/14 09:09:57;;;;;;;7.40;6.70;;;;;;;8.81;84.59;101550.41;5028132;28;20132;-67
2021/11/14 09:12:23;;;;;;;7.20;6.50;;;;;;;8.73;85.40;101558.84;5030065;28;20144;-67
2021/11/14 09:14:50;;;;;;;7.78;6.97;;;;;;;8.68;85.29;101560.97;5029771;28;20092;-66
2021/11/14 09:17:17;;;;;;;8.18;7.30;;;;;;;8.82;85.00;101568.56;5017302;28;20049;-66
2021/11/14 09:19:44;;;;;;;8.07;6.13;;;;;;;8.84;84.23;101571.88;5025837;28;20087;-67
2021/11/14 09:22:11;;;;;;;7.60;5.80;;;;;;;8.98;83.86;101573.34;5030358;28;20104;-67
2021/11/14 09:24:39;;;;;;;7.32;5.97;;;;;;;8.92;84.19;101574.72;5029652;28;20140;-67
2021/11/14 09:27:07;;;;;;;5.72;5.03;;;;;;;9.01;83.43;101583.56;5030846;28;20089;-66
2021/11/14 09:29:36;;;;;;;5.38;4.75;;;;;;;9.04;83.09;101585.09;5014624;28;20472;-66
2021/11/14 09:32:03;;;;;;;6.13;4.95;;;;;;;9.02;84.41;101584.38;5009844;28;20082;-66
2021/11/14 09:34:29;;;;;;;7.38;5.22;;;;;;;9.19;83.51;101581.25;5010109;28;20049;-66
2021/11/14 09:36:56;;;;;;;6.05;4.72;;;;;;;9.10;82.76;101584.59;5010600;28;20578;-66
2021/11/14 09:39:23;;;;;;;5.75;4.15;;;;;;;9.16;81.45;101586.72;5008672;28;20108;-66
2021/11/14 09:41:51;;;;;;;6.65;3.75;;;;;;;9.04;81.50;101585.94;5023720;28;20151;-66
2021/11/14 09:44:20;;;;;;;4.25;3.80;;;;;;;9.12;82.31;101585.31;5029962;28;20064;-66
2021/11/14 09:46:49;;;;;;;4.30;3.60;;;;;;;9.10;80.96;101590.66;5029672;28;20111;-66
2021/11/14 09:49:17;;;;;;;4.10;3.70;;;;;;;9.23;81.39;101593.13;5028885;28;20061;-68
2021/11/14 09:51:44;;;;;;;3.75;3.38;;;;;;;9.20;80.60;101598.59;5028994;28;20136;-68
2021/11/14 09:54:12;;;;;;;4.93;4.05;;;;;;;9.10;80.57;101592.44;5029913;28;20132;-68
2021/11/14 09:56:39;;;;;;;5.22;4.10;;;;;;;9.18;81.14;101597.88;5029399;28;20061;-67
2021/11/14 09:59:08;;;;;;;4.30;3.83;;;;;;;9.13;80.82;101592.19;5028600;28;20157;-67
2021/11/14 10:01:35;;;;;;;4.65;3.97;;;;;;;9.27;81.22;101597.97;5027702;28;20053;-67
2021/11/14 10:04:02;;;;;;;5.35;4.30;;;;;;;9.50;80.75;101593.47;5029712;28;20412;-67
2021/11/14 10:06:29;;;;;;;4.70;4.20;;;;;;;9.67;80.61;101594.72;5031159;28;20223;-67
2021/11/14 10:08:56;;;;;;;4.82;4.18;;;;;;;9.60;81.39;101597.00;5040624;28;20119;-67
2021/11/14 10:11:37;;;;;;;5.20;3.80;;;;;;;9.59;80.57;101592.72;5030342;28;20478;-67
2021/11/14 10:14:05;;;;;;;3.50;3.20;;;;;;;9.39;79.49;101609.22;5030249;28;20458;-67
2021/11/14 10:16:35;;;;;;;3.72;3.00;;;;;;;9.58;78.49;101609.34;5030744;28;20084;-67
2021/11/14 10:19:06;;;;;;;4.07;3.38;;;;;;;9.53;79.01;101603.69;5030526;28;20145;-67
2021/11/14 10:21:35;;;;;;;3.70;3.30;;;;;;;9.43;79.67;101600.19;5030534;28;20108;-68
2021/11/14 10:24:05;;;;;;;4.10;3.70;;;;;;;9.55;78.64;101614.84;5030476;28;20085;-68
2021/11/14 10:26:32;;;;;;;4.93;4.07;;;;;;;9.51;78.90;101612.59;5033426;28;20554;-68
2021/11/14 10:29:01;;;;;;;5.28;4.78;;;;;;;9.59;79.38;101605.78;5034056;28;20095;-68
2021/11/14 10:31:29;;;;;;;4.82;3.90;;;;;;;9.73;79.16;101611.69;5034480;28;20058;-68
2021/11/14 10:33:57;;;;;;;4.05;3.63;;;;;;;9.64;79.24;101606.25;5034310;28;20132;-68
2021/11/14 10:36:25;;;;;;;5.30;4.22;;;;;;;9.72;79.15;101612.63;5034264;28;20564;-68
2021/11/14 10:39:00;;;;;;;5.38;4.00;;;;;;;9.58;79.85;101609.34;5033766;28;20144;-68
2021/11/14 10:41:27;;;;;;;5.97;4.32;;;;;;;9.72;80.04;101616.06;5033714;28;20511;-69
2021/11/14 10:44:04;;;;;;;4.90;4.20;;;;;;;9.83;80.28;101617.81;5033663;28;20565;-69
2021/11/14 10:46:37;;;;;;;4.68;4.20;;;;;;;9.73;79.88;101619.50;5033975;28;20131;-69
2021/11/14 10:49:07;;;;;;;5.55;4.30;;;;;;;9.97;79.70;101617.47;5033822;28;20053;-68
2021/11/14 10:51:35;;;;;;;7.05;4.65;;;;;;;10.05;78.58;101620.28;5033479;28;20053;-66
2021/11/14 10:54:01;;;;;;;5.13;4.40;;;;;;;10.15;78.50;101618.53;5033521;28;20061;-66
2021/11/14 10:56:28;;;;;;;6.22;4.50;;;;;;;9.94;79.24;101621.16;5033435;28;20495;-66
2021/11/14 10:58:55;;;;;;;7.28;4.68;;;;;;;9.84;80.17;101627.31;5033408;28;20057;-65
2021/11/14 11:01:22;;;;;;;4.70;4.10;;;;;;;9.74;80.03;101623.78;5033622;28;20060;-66
2021/11/14 11:03:50;;;;;;;5.25;3.80;;;;;;;9.84;79.95;101622.91;5033604;28;20108;-65
2021/11/14 11:06:25;;;;;;;4.53;4.10;;;;;;;9.81;79.99;101624.94;5033135;28;20096;-65
2021/11/14 11:08:53;;;;;;;5.78;4.10;;;;;;;9.72;79.00;101625.69;5033035;28;20094;-65
2021/11/14 11:11:22;;;;;;;5.32;4.40;;;;;;;9.83;79.45;101629.09;5033503;28;20535;-65
2021/11/14 11:13:50;;;;;;;5.22;4.40;;;;;;;9.59;78.53;101625.88;5033040;28;20136;-65
2021/11/14 11:16:20;;;;;;;5.05;4.32;;;;;;;9.61;79.48;101627.41;5033247;28;20131;-66
2021/11/14 11:18:57;;;;;;;5.07;4.30;;;;;;;9.71;79.46;101626.66;5033295;28;20080;-66
2021/11/14 11:21:30;;;;;;;5.70;4.35;;;;;;;9.78;79.45;101630.44;5033400;28;20419;-67
2021/11/14 11:24:10;;;;;;;5.82;4.25;;;;;;;9.95;78.97;101628.06;5033168;28;20119;-68
2021/11/14 11:26:38;;;;;;;5.47;4.13;;;;;;;9.92;78.58;101622.28;5033070;28;20128;-67
2021/11/14 11:29:15;;;;;;;4.63;3.83;;;;;;;9.83;78.97;101628.25;5032811;28;20093;-68
2021/11/14 11:31:42;;;;;;;5.20;4.13;;;;;;;9.99;77.92;101624.22;5033277;28;20166;-66
2021/11/14 11:34:09;;;;;;;4.80;3.42;;;;;;;9.83;78.44;101617.81;5033227;28;20132;-66
2021/11/14 11:36:37;;;;;;;3.47;3.17;;;;;;;9.80;77.79;101628.50;5032150;28;20103;-66
2021/11/14 11:39:04;;;;;;;7.40;3.60;;;;;;;9.90;77.47;101625.03;5032903;28;20059;-67
2021/11/14 11:41:33;;;;;;;4.13;3.72;;;;;;;9.98;78.34;101619.13;5032746;28;20104;-68
2021/11/14 11:44:00;;;;;;;7.35;4.32;;;;;;;9.84;77.46;101619.47;5032677;28;20058;-67
2021/11/14 11:46:31;;;;;;;5.88;4.82;;;;;;;9.87;77.21;101625.28;5032419;28;20056;-68
2021/11/14 11:49:00;;;;;;;25.50;15.75;;;;;;;10.08;77.28;101622.63;5032662;28;20124;-68
2021/11/14 11:51:31;;;;;;;5.80;4.00;;;;;;;10.12;77.30;101624.03;5030348;28;20084;-67
2021/11/14 11:54:01;;;;;;;4.72;3.78;;;;;;;10.09;77.90;101631.31;5030821;28;20050;-69
2021/11/14 11:56:38;;;;;;;4.45;3.85;;;;;;;10.08;77.70;101625.25;5032536;28;20057;-69
2021/11/14 11:59:12;;;;;;;4.15;3.70;;;;;;;10.04;78.12;101633.47;5032692;28;20079;-68
2021/11/14 12:01:46;;;;;;;6.60;5.97;;;;;;;10.04;77.13;101633.47;5030222;28;20427;-69
2021/11/14 12:04:15;;;;;;;8.32;7.00;;;;;;;9.89;76.94;101632.97;5028947;28;20124;-69
2021/11/14 12:06:47;;;;;;;7.13;5.47;;;;;;;9.95;77.12;101638.50;5035332;28;20082;-68
2021/11/14 12:09:20;;;;;;;3.45;3.15;;;;;;;9.98;76.84;101640.03;5045811;28;20084;-68
2021/11/14 12:11:48;;;;;;;7.78;6.93;;;;;;;9.88;77.23;101637.38;5027710;28;20060;-69
2021/11/14 12:14:20;;;;;;;3.50;3.20;;;;;;;10.00;76.65;101638.13;5032165;28;20095;-69
2021/11/14 12:16:59;;;;;;;3.53;3.23;;;;;;;9.90;77.16;101642.50;5032046;28;20057;-68
2021/11/14 12:19:27;;;;;;;6.75;6.05;;;;;;;9.88;77.49;101632.16;5025087;28;20083;-69
2021/11/14 12:21:56;;;;;;;3.95;3.55;;;;;;;9.90;77.22;101635.47;5032121;28;20056;-69
2021/11/14 12:24:25;;;;;;;3.22;2.92;;;;;;;9.86;76.95;101644.53;5031931;28;20057;-68
2021/11/14 12:26:52;;;;;;;3.63;3.25;;;;;;;9.90;78.24;101634.66;5031577;28;20099;-68
2021/11/14 12:29:31;;;;;;;4.07;3.38;;;;;;;9.94;77.41;101651.72;5031349;28;20483;-68
2021/11/14 12:31:59;;;;;;;5.13;3.45;;;;;;;9.97;77.24;101647.06;5032072;28;20136;-69
2021/11/14 12:34:29;;;;;;;3.45;3.15;;;;;;;9.89;77.28;101653.91;5031168;28;20132;-67
2021/11/14 12:37:09;;;;;;;3.28;2.97;;;;;;;10.01;76.92;101657.25;5031272;28;20053;-67
2021/11/14 12:39:38;;;;;;;3.40;3.03;;;;;;;9.98;76.45;101648.72;5029570;28;20156;-67
2021/11/14 12:42:08;;;;;;;4.40;3.28;;;;;;;9.89;77.60;101666.97;5031754;28;20076;-68
2021/11/14 12:44:39;;;;;;;3.50;3.20;;;;;;;9.87;76.81;101666.28;5031297;28;20523;-68